Time;durP1;ratioP1;P1;durP2;ratioP2;P2;SDS_P1;SDS_P2;PMS_P1;PMS_P2;Temp;Humidity;BMP_temperature;BMP_pressure;BME280_temperature;BME280_humidity;BME280_pressure;Samples;Min_cycle;Max_cycle;Signal;HPM_P1;HPM_P2
2022/12/10 00:01:18;;;;;;;6.60;5.97;;;17.60;57.40;;;;;;4956176;28;20179;-68
2022/12/10 00:03:46;;;;;;;6.72;6.03;;;17.60;57.40;;;;;;4947004;29;20266;-68
2022/12/10 00:06:16;;;;;;;6.22;5.63;;;17.60;57.40;;;;;;4938122;29;20273;-69
2022/12/10 00:08:42;;;;;;;6.47;5.88;;;17.60;57.40;;;;;;4952664;29;20222;-70
2022/12/10 00:11:12;;;;;;;6.45;5.82;;;17.60;57.40;;;;;;4937173;29;20243;-68
2022/12/10 00:13:38;;;;;;;6.88;6.15;;;17.60;57.40;;;;;;4953170;29;20223;-69
2022/12/10 00:16:08;;;;;;;6.80;6.15;;;17.60;57.40;;;;;;4952828;28;20282;-69
2022/12/10 00:18:36;;;;;;;6.68;5.97;;;17.60;57.40;;;;;;4936785;28;20313;-68
2022/12/10 00:21:04;;;;;;;7.03;6.32;;;17.60;57.40;;;;;;4937005;28;20274;-69
2022/12/10 00:23:32;;;;;;;6.40;5.80;;;17.60;57.40;;;;;;4953131;28;20230;-69
2022/12/10 00:26:12;;;;;;;7.10;6.25;;;17.50;57.30;;;;;;4952293;28;20684;-68
2022/12/10 00:28:40;;;;;;;7.30;6.60;;;17.60;57.40;;;;;;4952406;29;20210;-69
2022/12/10 00:31:20;;;;;;;7.28;6.50;;;17.60;57.40;;;;;;4952382;29;20167;-69
2022/12/10 00:33:47;;;;;;;7.22;5.97;;;17.60;57.40;;;;;;4952211;29;20190;-69
2022/12/10 00:36:21;;;;;;;7.57;6.38;;;17.60;57.30;;;;;;4936819;28;20226;-69
2022/12/10 00:38:48;;;;;;;7.03;6.28;;;17.60;57.40;;;;;;4952014;28;20230;-69
2022/12/10 00:41:16;;;;;;;8.02;6.32;;;17.60;57.40;;;;;;4952581;29;20292;-69
2022/12/10 00:43:42;;;;;;;6.78;6.03;;;17.60;57.50;;;;;;4952323;28;20191;-69
2022/12/10 00:46:12;;;;;;;7.13;6.30;;;17.60;57.40;;;;;;4952225;28;20206;-69
2022/12/10 00:48:40;;;;;;;6.82;6.13;;;17.60;57.40;;;;;;4952232;28;20203;-69
2022/12/10 00:51:22;;;;;;;7.00;6.00;;;17.60;57.40;;;;;;4936180;28;20198;-69
2022/12/10 00:53:51;;;;;;;6.47;5.88;;;17.60;57.40;;;;;;4952256;29;20271;-69
2022/12/10 00:56:22;;;;;;;6.85;6.18;;;17.60;57.40;;;;;;4951014;28;20195;-69
2022/12/10 00:58:49;;;;;;;6.97;6.05;;;17.60;57.40;;;;;;4951655;29;20285;-69
2022/12/10 01:01:36;;;;;;;7.03;6.32;;;17.60;57.40;;;;;;4951835;28;20183;-69
2022/12/10 01:04:10;;;;;;;7.65;6.20;;;17.60;57.40;;;;;;4952184;28;20234;-69
2022/12/10 01:06:51;;;;;;;6.43;5.82;;;17.60;57.40;;;;;;4937199;29;20210;-68
2022/12/10 01:09:24;;;;;;;6.95;6.25;;;17.60;57.40;;;;;;4951609;28;20219;-69
2022/12/10 01:11:55;;;;;;;6.50;5.82;;;17.60;57.40;;;;;;4951780;28;20187;-69
2022/12/10 01:14:29;;;;;;;6.38;5.78;;;17.60;57.50;;;;;;4952005;28;20195;-69
2022/12/10 01:17:02;;;;;;;6.70;6.00;;;17.60;57.40;;;;;;4951955;29;20199;-69
2022/12/10 01:19:29;;;;;;;7.13;6.43;;;17.60;57.40;;;;;;4935449;29;20211;-69
2022/12/10 01:21:57;;;;;;;7.35;6.55;;;17.60;57.40;;;;;;4951612;28;20188;-69
2022/12/10 01:24:25;;;;;;;7.07;6.30;;;17.60;57.40;;;;;;4935937;28;20194;-68
2022/12/10 01:26:51;;;;;;;7.05;6.35;;;17.60;57.40;;;;;;4936698;29;20183;-69
2022/12/10 01:29:18;;;;;;;7.30;6.25;;;17.60;57.40;;;;;;4936275;29;20294;-69
2022/12/10 01:31:44;;;;;;;6.95;6.25;;;17.60;57.40;;;;;;4951566;29;20255;-68
2022/12/10 01:34:13;;;;;;;7.22;6.40;;;17.60;57.40;;;;;;4935350;29;20194;-68
2022/12/10 01:36:44;;;;;;;8.07;6.30;;;17.60;57.40;;;;;;4951370;29;20187;-69
2022/12/10 01:39:15;;;;;;;7.40;6.63;;;17.60;57.40;;;;;;4951267;29;20247;-69
2022/12/10 01:41:49;;;;;;;7.32;6.55;;;17.60;57.40;;;;;;4951219;29;20184;-69
2022/12/10 01:44:16;;;;;;;7.18;6.05;;;17.60;57.40;;;;;;4951610;29;20186;-68
2022/12/10 01:46:46;;;;;;;7.20;6.47;;;17.60;58.00;;;;;;4951138;28;20186;-69
2022/12/10 01:49:19;;;;;;;6.70;6.00;;;17.60;57.40;;;;;;4951283;28;20207;-69
2022/12/10 01:51:49;;;;;;;6.88;6.18;;;17.60;57.40;;;;;;4951088;29;20195;-69
2022/12/10 01:54:27;;;;;;;6.97;6.28;;;17.60;57.40;;;;;;4951184;29;20638;-69
2022/12/10 01:57:23;;;;;;;6.70;6.00;;;17.60;57.40;;;;;;4935127;28;20183;-68
2022/12/10 01:59:56;;;;;;;6.53;5.78;;;17.60;57.40;;;;;;4935896;29;20215;-69
2022/12/10 02:02:50;;;;;;;7.07;5.85;;;17.60;57.40;;;;;;4950836;29;20179;-69
2022/12/10 02:05:45;;;;;;;6.63;5.93;;;17.60;57.40;;;;;;4950913;29;20180;-69
2022/12/10 02:08:30;;;;;;;6.72;6.03;;;17.60;57.40;;;;;;4950239;28;20266;-69
2022/12/10 02:11:33;;;;;;;6.30;5.70;;;17.60;57.40;;;;;;4934990;28;20214;-68
2022/12/10 02:14:23;;;;;;;6.43;5.82;;;17.60;57.40;;;;;;4950669;29;20183;-68
2022/12/10 02:17:07;;;;;;;6.95;5.88;;;17.60;57.40;;;;;;4934648;29;20267;-68
2022/12/10 02:20:10;;;;;;;6.55;5.80;;;17.60;57.40;;;;;;4950719;29;20207;-68
2022/12/10 02:22:48;;;;;;;6.90;6.15;;;17.60;57.50;;;;;;4934833;29;20195;-69
2022/12/10 02:25:19;;;;;;;6.85;6.15;;;17.60;57.40;;;;;;4950495;29;20194;-68
2022/12/10 02:27:58;;;;;;;6.93;6.22;;;17.60;57.40;;;;;;4950354;29;20203;-69
2022/12/10 02:30:26;;;;;;;6.95;5.85;;;17.60;57.40;;;;;;4950470;29;20282;-69
2022/12/10 02:32:53;;;;;;;7.43;6.25;;;17.60;57.40;;;;;;4950718;28;20187;-69
2022/12/10 02:35:28;;;;;;;6.90;6.20;;;17.60;57.40;;;;;;4934375;28;20195;-69
2022/12/10 02:38:04;;;;;;;7.25;6.38;;;17.60;57.40;;;;;;4934421;29;20322;-67
2022/12/10 02:40:36;;;;;;;6.15;5.55;;;17.60;57.40;;;;;;4934364;28;20250;-69
2022/12/10 02:43:06;;;;;;;6.93;6.15;;;17.60;58.00;;;;;;4935112;29;20201;-69
2022/12/10 02:45:34;;;;;;;6.68;5.88;;;17.60;57.50;;;;;;4950585;29;20259;-69
2022/12/10 02:48:04;;;;;;;6.22;5.63;;;17.60;57.40;;;;;;4952559;28;20202;-68
2022/12/10 02:50:36;;;;;;;7.32;5.80;;;17.60;57.50;;;;;;4968664;28;20174;-69
2022/12/10 02:53:03;;;;;;;6.70;6.00;;;17.60;57.40;;;;;;4969754;28;20277;-69
2022/12/10 02:56:13;;;;;;;6.35;5.70;;;17.60;57.40;;;;;;4969371;28;20277;-68
2022/12/10 02:59:24;;;;;;;6.22;5.63;;;17.60;57.40;;;;;;4969345;28;20222;-68
2022/12/10 03:02:15;;;;;;;7.18;6.07;;;17.60;57.40;;;;;;4969371;28;20186;-68
2022/12/10 03:04:57;;;;;;;6.10;5.50;;;17.60;57.50;;;;;;4969348;28;20195;-68
2022/12/10 03:07:37;;;;;;;6.20;5.60;;;17.60;57.40;;;;;;4969222;28;20198;-68
2022/12/10 03:10:21;;;;;;;6.30;5.53;;;17.60;57.40;;;;;;4953036;29;20379;-69
2022/12/10 03:12:54;;;;;;;7.00;6.28;;;17.60;57.40;;;;;;4954562;28;20249;-69
2022/12/10 03:15:23;;;;;;;6.32;5.53;;;17.60;57.40;;;;;;4951925;28;20395;-68
2022/12/10 03:17:52;;;;;;;5.65;5.15;;;17.50;57.30;;;;;;4937012;28;20222;-68
2022/12/10 03:20:23;;;;;;;7.03;5.70;;;17.60;57.40;;;;;;4955168;28;20346;-69
2022/12/10 03:22:49;;;;;;;5.50;5.00;;;17.60;57.40;;;;;;4959846;28;20191;-69
2022/12/10 03:25:23;;;;;;;6.45;5.07;;;17.60;57.40;;;;;;4969926;28;20202;-69
2022/12/10 03:27:55;;;;;;;6.22;5.55;;;17.60;57.40;;;;;;4937657;29;20222;-69
2022/12/10 03:30:21;;;;;;;5.88;5.10;;;17.60;57.40;;;;;;4937440;29;20199;-69
2022/12/10 03:32:49;;;;;;;6.07;5.47;;;17.60;57.40;;;;;;4969955;28;20206;-69
2022/12/10 03:35:16;;;;;;;5.80;5.18;;;17.60;57.40;;;;;;4969706;28;20278;-69
2022/12/10 03:37:42;;;;;;;5.97;5.38;;;17.60;57.40;;;;;;4953263;28;20229;-68
2022/12/10 03:40:12;;;;;;;6.18;5.20;;;17.60;57.40;;;;;;5022627;23;20318;-68
2022/12/10 03:42:38;;;;;;;5.95;5.22;;;17.60;57.40;;;;;;5014943;28;20243;-68
2022/12/10 03:45:05;;;;;;;5.85;5.28;;;17.60;57.40;;;;;;5014682;28;20183;-69
2022/12/10 03:47:32;;;;;;;6.00;5.40;;;17.60;57.40;;;;;;5014825;28;20199;-69
2022/12/10 03:49:58;;;;;;;5.80;5.15;;;17.60;57.30;;;;;;4998236;28;20307;-68
2022/12/10 03:52:23;;;;;;;5.63;5.13;;;17.60;57.30;;;;;;4998469;28;20186;-67
2022/12/10 03:54:49;;;;;;;5.55;5.05;;;17.60;57.40;;;;;;5014398;28;20196;-68
2022/12/10 03:57:15;;;;;;;8.00;4.88;;;17.60;57.40;;;;;;5014435;28;20204;-68
2022/12/10 03:59:40;;;;;;;8.07;5.20;;;17.60;57.40;;;;;;4998178;28;20257;-68
2022/12/10 04:02:06;;;;;;;5.75;5.15;;;17.60;57.40;;;;;;4998427;28;20195;-69
2022/12/10 04:04:32;;;;;;;5.72;5.22;;;17.60;57.40;;;;;;5014422;28;20184;-69
2022/12/10 04:06:58;;;;;;;5.47;4.78;;;17.60;57.40;;;;;;4997934;28;20215;-68
2022/12/10 04:09:24;;;;;;;6.72;5.30;;;17.60;57.40;;;;;;5015217;28;20286;-68
2022/12/10 04:11:49;;;;;;;5.47;4.97;;;17.60;57.40;;;;;;5014599;28;20180;-68
2022/12/10 04:17:00;;;;;;;5.30;4.80;;;17.60;57.40;;;;;;5014014;28;20220;-68
2022/12/10 04:19:26;;;;;;;6.00;4.97;;;17.60;57.30;;;;;;5013634;28;20687;-68
2022/12/10 04:27:28;;;;;;;5.65;5.15;;;17.60;57.40;;;;;;5015220;28;20263;-69
2022/12/10 04:29:57;;;;;;;4.70;4.30;;;17.60;57.30;;;;;;5014864;28;20243;-68
2022/12/10 04:32:25;;;;;;;5.40;4.90;;;17.60;57.40;;;;;;4997450;28;20651;-68
2022/12/10 04:34:51;;;;;;;5.68;4.97;;;17.60;57.30;;;;;;4997421;28;20279;-69
2022/12/10 04:37:18;;;;;;;5.07;4.65;;;17.60;57.40;;;;;;4997657;28;20664;-68
2022/12/10 04:39:44;;;;;;;5.35;4.85;;;17.60;57.30;;;;;;5013325;28;20587;-68
2022/12/10 04:42:10;;;;;;;6.78;5.00;;;17.60;57.40;;;;;;5030295;28;20188;-69
2022/12/10 04:44:36;;;;;;;5.57;4.60;;;17.60;57.40;;;;;;5013372;28;20210;-68
2022/12/10 04:47:08;;;;;;;7.05;4.75;;;17.60;57.30;;;;;;5013593;28;20172;-68
2022/12/10 04:49:34;;;;;;;5.05;4.45;;;17.60;57.40;;;;;;5013303;28;20204;-67
2022/12/10 04:52:00;;;;;;;4.82;4.35;;;17.60;57.40;;;;;;5013745;28;20287;-68
2022/12/10 04:54:27;;;;;;;4.93;4.43;;;17.60;57.40;;;;;;5014635;28;20243;-68
2022/12/10 04:56:53;;;;;;;4.47;4.07;;;17.60;57.40;;;;;;5013272;28;20219;-68
2022/12/10 04:59:19;;;;;;;4.88;4.43;;;17.60;57.40;;;;;;4996588;28;20212;-68
2022/12/10 05:01:45;;;;;;;5.38;4.32;;;17.60;57.30;;;;;;5013273;28;20238;-68
2022/12/10 05:04:15;;;;;;;5.63;4.38;;;17.60;57.30;;;;;;5013308;28;20188;-68
2022/12/10 05:06:41;;;;;;;4.45;4.03;;;17.60;57.30;;;;;;4996911;28;20180;-68
2022/12/10 05:09:08;;;;;;;7.63;4.10;;;17.60;57.30;;;;;;4996541;28;20195;-68
2022/12/10 05:11:34;;;;;;;4.18;3.88;;;17.60;57.30;;;;;;5013062;28;20191;-68
2022/12/10 05:14:00;;;;;;;4.50;4.10;;;17.60;57.40;;;;;;5014109;28;20185;-68
2022/12/10 05:16:29;;;;;;;4.70;4.18;;;17.60;57.30;;;;;;5013035;28;20237;-67
2022/12/10 05:18:56;;;;;;;4.68;4.22;;;17.60;57.30;;;;;;4996383;28;20219;-68
2022/12/10 05:23:27;;;;;;;4.85;4.38;;;17.60;57.30;;;;;;5012988;28;20195;-68
2022/12/10 05:24:13;;;;;;;4.78;4.28;;;17.60;57.40;;;;;;5013924;28;20242;-68
2022/12/10 05:26:38;;;;;;;4.45;3.92;;;17.60;57.40;;;;;;5012731;28;20179;-68
2022/12/10 05:29:04;;;;;;;4.30;3.90;;;17.60;57.30;;;;;;5012848;28;20208;-67
2022/12/10 05:31:30;;;;;;;4.20;3.88;;;17.60;57.40;;;;;;5012879;28;20188;-68
2022/12/10 05:33:58;;;;;;;4.28;3.88;;;17.60;57.30;;;;;;5013075;28;20195;-68
2022/12/10 05:36:31;;;;;;;4.20;3.85;;;17.60;57.40;;;;;;4996548;28;20210;-68
2022/12/10 05:38:58;;;;;;;4.45;4.05;;;17.60;57.40;;;;;;5028825;28;20240;-68
2022/12/10 05:41:34;;;;;;;4.63;4.22;;;17.60;57.40;;;;;;5012628;28;20267;-68
2022/12/10 05:43:59;;;;;;;4.40;4.00;;;17.60;57.30;;;;;;5012017;28;20259;-68
2022/12/10 05:46:30;;;;;;;4.50;4.10;;;17.60;57.30;;;;;;4996388;28;20192;-68
2022/12/10 05:48:57;;;;;;;4.45;4.05;;;17.60;57.30;;;;;;4996068;28;20212;-68
2022/12/10 05:51:27;;;;;;;4.25;3.80;;;17.60;57.30;;;;;;5012281;28;20191;-68
2022/12/10 05:53:54;;;;;;;4.18;3.78;;;17.60;57.30;;;;;;5012605;28;20191;-68
2022/12/10 05:56:24;;;;;;;4.43;4.03;;;17.50;57.20;;;;;;5012388;28;20246;-68
2022/12/10 05:58:53;;;;;;;3.60;3.30;;;17.60;57.30;;;;;;5012006;28;20274;-68
2022/12/10 06:01:26;;;;;;;5.93;3.97;;;17.50;57.10;;;;;;5012441;28;20212;-68
2022/12/10 06:03:52;;;;;;;5.13;3.85;;;17.60;57.30;;;;;;5012288;28;20176;-68
2022/12/10 06:06:27;;;;;;;4.15;3.85;;;17.60;57.30;;;;;;4995411;28;20183;-68
2022/12/10 06:08:54;;;;;;;4.32;3.92;;;17.60;57.30;;;;;;4995777;28;20211;-68
2022/12/10 06:11:21;;;;;;;4.80;4.13;;;17.60;57.30;;;;;;5028490;28;20176;-68
2022/12/10 06:13:47;;;;;;;4.30;3.90;;;17.60;57.30;;;;;;5011915;28;20183;-68
2022/12/10 06:16:14;;;;;;;4.38;3.97;;;17.60;57.30;;;;;;5013086;28;20334;-68
2022/12/10 06:18:41;;;;;;;3.90;3.60;;;17.60;57.20;;;;;;5012716;28;20231;-68
2022/12/10 06:21:12;;;;;;;4.45;3.95;;;17.60;57.30;;;;;;5011750;28;20180;-68
2022/12/10 06:23:39;;;;;;;4.50;4.07;;;17.60;57.30;;;;;;4995394;28;20255;-68
2022/12/10 06:26:15;;;;;;;4.32;3.92;;;17.60;57.30;;;;;;5011854;28;20180;-68
2022/12/10 06:28:44;;;;;;;3.75;3.45;;;17.60;57.30;;;;;;5028008;28;20691;-67
2022/12/10 06:31:09;;;;;;;3.70;3.40;;;17.60;57.20;;;;;;5028509;28;20192;-68
2022/12/10 06:33:35;;;;;;;3.88;3.55;;;17.60;57.20;;;;;;5011685;28;20215;-68
2022/12/10 06:36:08;;;;;;;3.53;3.22;;;17.60;57.30;;;;;;5028433;28;20196;-68
2022/12/10 06:38:35;;;;;;;4.25;3.85;;;17.60;57.30;;;;;;5012653;28;20227;-68
2022/12/10 06:41:04;;;;;;;3.88;3.58;;;17.60;57.30;;;;;;5011636;28;20165;-68
2022/12/10 06:43:30;;;;;;;3.80;3.50;;;17.60;57.20;;;;;;5011454;28;20230;-68
2022/12/10 06:45:56;;;;;;;4.03;3.65;;;17.60;57.20;;;;;;4995165;28;20184;-68
2022/12/10 06:48:21;;;;;;;4.05;3.65;;;17.60;57.30;;;;;;5011278;28;20215;-68
2022/12/10 06:50:47;;;;;;;3.33;3.03;;;17.60;57.30;;;;;;5011655;28;20278;-68
2022/12/10 06:53:13;;;;;;;4.35;3.47;;;17.60;57.30;;;;;;5011510;28;20227;-68
2022/12/10 06:55:39;;;;;;;3.75;3.45;;;17.60;57.20;;;;;;4994548;28;20203;-68
2022/12/10 06:58:05;;;;;;;3.65;3.30;;;17.60;57.20;;;;;;5011684;28;20262;-68
2022/12/10 07:00:30;;;;;;;3.70;3.30;;;17.60;57.20;;;;;;5011165;28;20203;-68
2022/12/10 07:02:56;;;;;;;3.45;3.22;;;17.60;57.20;;;;;;5012884;28;20319;-68
2022/12/10 07:05:22;;;;;;;3.45;3.15;;;17.60;57.10;;;;;;4995264;28;20187;-68
2022/12/10 07:07:48;;;;;;;4.07;3.70;;;17.60;57.10;;;;;;5011255;28;20871;-68
2022/12/10 07:10:14;;;;;;;3.63;3.33;;;17.60;57.10;;;;;;5011192;28;20207;-69
2022/12/10 07:12:40;;;;;;;4.05;3.67;;;17.60;57.10;;;;;;4995143;28;20216;-68
2022/12/10 07:15:06;;;;;;;3.40;3.10;;;17.60;57.10;;;;;;5012435;28;20188;-68
2022/12/10 07:17:32;;;;;;;3.60;3.30;;;17.60;57.20;;;;;;5007433;28;20279;-69
2022/12/10 07:19:58;;;;;;;4.75;3.33;;;17.60;57.10;;;;;;4988535;28;20667;-68
2022/12/10 07:22:24;;;;;;;4.57;3.60;;;17.60;57.10;;;;;;5011252;28;20191;-69
2022/12/10 07:24:50;;;;;;;3.40;3.10;;;17.60;57.10;;;;;;5011282;28;20180;-69
2022/12/10 07:27:16;;;;;;;3.15;2.60;;;17.60;57.20;;;;;;5012362;28;20195;-68
2022/12/10 07:29:43;;;;;;;3.10;2.80;;;17.60;57.20;;;;;;5011166;28;20208;-68
2022/12/10 07:32:10;;;;;;;3.67;3.13;;;17.60;57.10;;;;;;5011123;28;20176;-69
2022/12/10 07:34:35;;;;;;;3.20;2.90;;;17.60;57.10;;;;;;5012317;28;20238;-69
2022/12/10 07:37:01;;;;;;;3.25;2.95;;;17.60;57.10;;;;;;5010893;28;20180;-68
2022/12/10 07:39:27;;;;;;;3.60;3.05;;;17.60;57.10;;;;;;5000816;28;20235;-68
2022/12/10 07:41:53;;;;;;;3.38;2.90;;;17.50;57.00;;;;;;5002132;28;20210;-69
2022/12/10 07:44:25;;;;;;;3.88;3.08;;;17.60;57.10;;;;;;5010877;28;20219;-68
2022/12/10 07:46:54;;;;;;;3.38;3.05;;;17.60;57.10;;;;;;5011328;28;20181;-69
2022/12/10 07:49:20;;;;;;;3.95;3.47;;;17.60;57.20;;;;;;5010665;28;20199;-69
2022/12/10 07:51:47;;;;;;;4.47;3.05;;;17.60;57.10;;;;;;5012506;28;20188;-69
2022/12/10 07:54:15;;;;;;;3.42;3.08;;;17.50;57.10;;;;;;5012129;28;20186;-69
2022/12/10 07:56:41;;;;;;;4.28;3.40;;;17.60;57.00;;;;;;4994568;28;20194;-69
2022/12/10 07:59:07;;;;;;;4.22;2.90;;;17.60;57.00;;;;;;5011677;28;20216;-68
2022/12/10 08:01:33;;;;;;;3.80;3.15;;;17.60;57.00;;;;;;5010781;28;20188;-69
2022/12/10 08:03:59;;;;;;;3.03;2.72;;;17.60;57.60;;;;;;5011095;28;20243;-68
2022/12/10 08:06:27;;;;;;;3.50;3.08;;;17.60;57.60;;;;;;5029114;28;20180;-68
2022/12/10 08:08:53;;;;;;;3.67;3.22;;;17.60;57.00;;;;;;5014193;28;20243;-68
2022/12/10 08:11:21;;;;;;;3.40;2.85;;;17.60;57.00;;;;;;5015406;28;20181;-68
2022/12/10 08:13:48;;;;;;;4.43;2.90;;;17.60;57.00;;;;;;5014124;28;20188;-68
2022/12/10 08:16:25;;;;;;;3.00;2.58;;;17.60;57.00;;;;;;5014239;28;20184;-68
2022/12/10 08:18:51;;;;;;;3.47;3.00;;;17.60;56.90;;;;;;5013813;28;20251;-68
2022/12/10 08:21:20;;;;;;;3.25;2.97;;;17.60;57.00;;;;;;5014106;28;20176;-69
2022/12/10 08:23:47;;;;;;;3.67;2.80;;;17.60;56.90;;;;;;5014064;28;20737;-69
2022/12/10 08:26:20;;;;;;;3.38;2.97;;;17.60;57.00;;;;;;5014006;28;20184;-69
2022/12/10 08:28:48;;;;;;;3.10;2.78;;;17.60;57.00;;;;;;5014657;28;20302;-69
2022/12/10 08:31:17;;;;;;;3.83;2.67;;;17.60;57.00;;;;;;5013973;28;20679;-69
2022/12/10 08:33:42;;;;;;;3.10;2.80;;;17.60;57.00;;;;;;5013529;28;20702;-69
2022/12/10 08:36:12;;;;;;;2.95;2.65;;;17.60;57.00;;;;;;4997237;28;20188;-69
2022/12/10 08:38:40;;;;;;;3.40;2.60;;;17.60;57.00;;;;;;5014582;28;20269;-69
2022/12/10 08:41:18;;;;;;;2.80;2.60;;;17.60;56.90;;;;;;5013829;28;20207;-69
2022/12/10 08:43:44;;;;;;;3.17;2.88;;;17.60;56.90;;;;;;5013649;28;20176;-69
2022/12/10 08:46:12;;;;;;;2.75;2.55;;;17.60;57.00;;;;;;5013494;28;20186;-70
2022/12/10 08:48:41;;;;;;;2.92;2.47;;;17.60;57.00;;;;;;5013159;28;20211;-69
2022/12/10 08:51:10;;;;;;;2.92;2.72;;;17.60;56.90;;;;;;5013455;28;20212;-69
2022/12/10 08:53:36;;;;;;;3.20;2.72;;;17.60;56.90;;;;;;5013548;28;20215;-70
2022/12/10 08:56:02;;;;;;;3.78;2.53;;;17.60;56.90;;;;;;5013431;28;20231;-69
2022/12/10 08:58:28;;;;;;;3.25;2.53;;;17.60;56.90;;;;;;5013769;28;20220;-71
2022/12/10 09:00:53;;;;;;;2.45;2.25;;;17.60;56.90;;;;;;4996498;28;20238;-69
2022/12/10 09:03:19;;;;;;;3.22;2.40;;;17.60;57.00;;;;;;5013076;28;20184;-69
2022/12/10 09:05:45;;;;;;;2.67;2.42;;;17.60;56.90;;;;;;4996747;28;20188;-69
2022/12/10 09:08:11;;;;;;;2.85;2.40;;;17.60;56.90;;;;;;5013072;28;20192;-69
2022/12/10 09:10:39;;;;;;;3.00;2.70;;;17.60;57.00;;;;;;5012704;28;20212;-68
2022/12/10 09:13:05;;;;;;;3.10;2.80;;;17.60;57.00;;;;;;5013334;28;20172;-69
2022/12/10 09:15:31;;;;;;;3.35;2.60;;;17.60;56.90;;;;;;5008154;28;20627;-69
2022/12/10 09:17:57;;;;;;;3.22;2.92;;;17.60;56.90;;;;;;5023806;28;20291;-69
2022/12/10 09:20:23;;;;;;;3.00;2.70;;;17.60;56.90;;;;;;5012213;28;20295;-69
2022/12/10 09:22:49;;;;;;;3.05;2.63;;;17.60;56.90;;;;;;4996187;28;20176;-69
2022/12/10 09:25:16;;;;;;;2.72;2.30;;;17.60;56.90;;;;;;5029550;28;20184;-69
2022/12/10 09:27:43;;;;;;;5.85;2.70;;;17.60;56.90;;;;;;5029206;28;20203;-69
2022/12/10 09:30:11;;;;;;;3.13;2.83;;;17.60;56.80;;;;;;5012211;28;20298;-69
2022/12/10 09:32:36;;;;;;;2.95;2.70;;;17.60;56.80;;;;;;5012624;28;20726;-69
2022/12/10 09:35:03;;;;;;;2.95;2.63;;;17.60;56.80;;;;;;5029030;28;20192;-70
2022/12/10 09:37:29;;;;;;;2.83;2.63;;;17.60;56.80;;;;;;5013525;28;20208;-70
2022/12/10 09:39:55;;;;;;;3.03;2.58;;;17.60;56.80;;;;;;5013543;28;20215;-69
2022/12/10 09:42:58;;;;;;;3.50;2.97;;;17.60;56.80;;;;;;5012404;28;20196;-70
2022/12/10 09:45:40;;;;;;;3.42;2.70;;;17.60;56.80;;;;;;5029104;28;20175;-70
2022/12/10 09:48:47;;;;;;;3.47;2.90;;;17.60;56.90;;;;;;4996379;28;20242;-69
2022/12/10 09:51:24;;;;;;;3.75;2.92;;;17.60;56.80;;;;;;5012774;28;20191;-69
2022/12/10 09:53:58;;;;;;;2.70;2.50;;;17.60;56.80;;;;;;5012501;28;20168;-70
2022/12/10 09:56:33;;;;;;;3.95;2.50;;;17.60;56.80;;;;;;5012743;28;20184;-69
2022/12/10 09:59:09;;;;;;;2.97;2.42;;;17.60;56.80;;;;;;5028465;28;20223;-69
2022/12/10 10:01:35;;;;;;;2.47;2.28;;;17.60;56.90;;;;;;5012470;28;20168;-69
2022/12/10 10:04:03;;;;;;;2.67;2.47;;;17.70;57.00;;;;;;5012064;28;20176;-69
2022/12/10 10:06:30;;;;;;;2.67;2.47;;;17.70;57.00;;;;;;4996003;28;20181;-68
2022/12/10 10:09:02;;;;;;;2.90;2.70;;;17.60;56.80;;;;;;5011772;28;20203;-69
2022/12/10 10:11:33;;;;;;;2.70;2.45;;;17.70;56.90;;;;;;5012446;28;20202;-69
2022/12/10 10:14:06;;;;;;;2.50;2.30;;;17.70;57.00;;;;;;5012095;28;20542;-69
2022/12/10 10:16:48;;;;;;;2.67;2.30;;;17.70;56.90;;;;;;5012004;28;20190;-68
2022/12/10 10:19:30;;;;;;;3.60;2.47;;;17.70;56.90;;;;;;5012879;28;20220;-68
2022/12/10 10:21:57;;;;;;;4.22;2.38;;;17.70;56.90;;;;;;4992333;28;20235;-69
2022/12/10 10:24:40;;;;;;;2.72;2.38;;;17.70;56.80;;;;;;4992495;28;20184;-68
2022/12/10 10:27:29;;;;;;;2.40;2.20;;;17.70;56.90;;;;;;4993511;28;20216;-68
2022/12/10 10:30:00;;;;;;;2.67;2.47;;;17.60;56.80;;;;;;4991911;28;20216;-68
2022/12/10 10:32:49;;;;;;;2.60;2.40;;;17.70;56.80;;;;;;4993643;28;20177;-68
2022/12/10 10:35:28;;;;;;;2.50;2.30;;;17.70;56.90;;;;;;4991844;28;20189;-68
2022/12/10 10:38:07;;;;;;;2.40;2.20;;;17.70;56.80;;;;;;4990272;28;20203;-69
2022/12/10 10:40:41;;;;;;;2.53;2.33;;;17.70;56.90;;;;;;5012659;28;20208;-70
2022/12/10 10:43:44;;;;;;;2.90;2.67;;;17.70;56.90;;;;;;5011668;28;20176;-69
2022/12/10 10:46:20;;;;;;;2.50;2.30;;;17.70;56.80;;;;;;5012628;28;20655;-69
2022/12/10 10:48:46;;;;;;;2.92;2.42;;;17.70;56.80;;;;;;5011263;28;20266;-68
2022/12/10 10:51:12;;;;;;;2.20;2.10;;;17.60;56.80;;;;;;5011794;28;20192;-70
2022/12/10 10:53:54;;;;;;;2.40;2.20;;;17.70;56.90;;;;;;5011816;28;20238;-70
2022/12/10 10:56:31;;;;;;;2.55;2.35;;;17.60;56.70;;;;;;4995096;28;20283;-69
2022/12/10 10:59:17;;;;;;;2.90;2.50;;;17.60;56.80;;;;;;5010946;28;20223;-69
2022/12/10 11:01:53;;;;;;;2.60;2.40;;;17.70;56.90;;;;;;5011690;28;20218;-70
2022/12/10 11:04:37;;;;;;;2.80;2.50;;;17.70;56.90;;;;;;4994876;28;20267;-69
2022/12/10 11:07:15;;;;;;;2.90;2.13;;;17.70;56.90;;;;;;5012557;28;20214;-69
2022/12/10 11:09:44;;;;;;;3.00;2.70;;;17.70;56.90;;;;;;5011024;28;20239;-70
2022/12/10 11:12:32;;;;;;;3.22;2.60;;;17.60;56.80;;;;;;5008061;28;20196;-70
2022/12/10 11:14:58;;;;;;;4.55;2.53;;;17.70;57.00;;;;;;4992522;28;20180;-69
2022/12/10 11:17:26;;;;;;;3.70;2.70;;;17.70;56.90;;;;;;5009496;28;20192;-70
2022/12/10 11:20:19;;;;;;;2.55;2.35;;;17.70;56.90;;;;;;5011139;28;20204;-69
2022/12/10 11:23:01;;;;;;;3.17;2.88;;;17.70;56.80;;;;;;5008795;28;20180;-70
2022/12/10 11:26:02;;;;;;;2.85;2.65;;;17.70;56.90;;;;;;5000793;28;20181;-70
2022/12/10 11:29:23;;;;;;;2.53;2.33;;;17.70;57.00;;;;;;5004848;28;20214;-69
2022/12/10 11:32:07;;;;;;;3.00;2.80;;;17.70;57.00;;;;;;5012317;28;20199;-69
2022/12/10 11:34:55;;;;;;;2.65;2.45;;;17.70;57.00;;;;;;5011113;28;20180;-69
2022/12/10 11:37:26;;;;;;;2.88;2.63;;;17.70;57.00;;;;;;4994710;28;20263;-69
2022/12/10 11:40:24;;;;;;;2.72;2.53;;;17.70;57.00;;;;;;4988771;28;20230;-69
2022/12/10 11:43:23;;;;;;;2.75;2.55;;;17.70;57.10;;;;;;5001479;28;20208;-70
2022/12/10 11:46:05;;;;;;;3.00;2.55;;;17.70;57.00;;;;;;5010370;28;20180;-70
2022/12/10 11:48:46;;;;;;;3.33;3.03;;;17.70;57.00;;;;;;5004623;28;20571;-69
2022/12/10 11:51:43;;;;;;;4.15;2.83;;;17.70;57.10;;;;;;5014334;28;20242;-69
2022/12/10 11:54:48;;;;;;;4.47;2.67;;;17.80;57.60;;;;;;5008792;28;20200;-69
2022/12/10 11:57:31;;;;;;;2.88;2.65;;;17.80;57.50;;;;;;5014430;28;20176;-69
2022/12/10 12:00:24;;;;;;;4.80;3.00;;;17.80;57.50;;;;;;4998630;28;20234;-70
2022/12/10 12:03:32;;;;;;;3.03;2.67;;;17.80;57.50;;;;;;5011267;28;20243;-70
2022/12/10 12:06:32;;;;;;;3.67;2.83;;;17.80;57.50;;;;;;5013802;28;20184;-70
2022/12/10 12:09:20;;;;;;;3.58;3.03;;;17.70;57.40;;;;;;5013827;28;20212;-69
2022/12/10 12:12:20;;;;;;;3.53;2.70;;;17.70;57.40;;;;;;5030335;28;20191;-69
2022/12/10 12:15:02;;;;;;;3.75;2.60;;;17.80;57.50;;;;;;4980176;28;20254;-70
2022/12/10 12:17:45;;;;;;;3.55;2.63;;;17.70;57.40;;;;;;4994743;28;20195;-70
2022/12/10 12:20:38;;;;;;;6.07;2.95;;;17.80;57.40;;;;;;5010430;28;20208;-70
2022/12/10 12:23:50;;;;;;;3.20;2.90;;;17.80;57.40;;;;;;4995631;28;20630;-70
2022/12/10 12:26:36;;;;;;;2.92;2.70;;;17.70;57.30;;;;;;4994568;28;20189;-70
2022/12/10 12:29:28;;;;;;;3.42;2.58;;;17.80;57.40;;;;;;4994078;28;20196;-69
2022/12/10 12:32:21;;;;;;;3.60;3.33;;;17.70;57.20;;;;;;5001636;28;20184;-70
2022/12/10 12:35:40;;;;;;;4.30;2.70;;;17.70;57.30;;;;;;5009842;28;20220;-70
2022/12/10 12:38:26;;;;;;;2.75;2.40;;;17.70;57.40;;;;;;4977878;28;20209;-70
2022/12/10 12:41:04;;;;;;;3.58;2.85;;;17.70;57.40;;;;;;4992958;28;20161;-69
2022/12/10 12:43:36;;;;;;;4.38;2.80;;;17.70;57.40;;;;;;4990748;28;20180;-70
2022/12/10 12:46:13;;;;;;;3.03;2.60;;;17.70;57.40;;;;;;4999191;28;20189;-70
2022/12/10 12:48:50;;;;;;;2.83;2.50;;;17.70;57.40;;;;;;4993877;28;20292;-70
2022/12/10 12:52:09;;;;;;;2.80;2.60;;;17.70;57.40;;;;;;4983034;28;20180;-70
2022/12/10 12:54:36;;;;;;;4.65;2.70;;;17.70;57.40;;;;;;4934910;29;20622;-69
2022/12/10 12:57:49;;;;;;;2.65;2.38;;;17.70;57.30;;;;;;4921492;29;20672;-69
2022/12/10 13:00:23;;;;;;;4.70;2.63;;;17.70;57.40;;;;;;4955567;28;20291;-70
2022/12/10 13:03:21;;;;;;;3.90;2.67;;;17.80;57.40;;;;;;5010141;28;20177;-69
2022/12/10 13:05:47;;;;;;;3.17;2.47;;;17.70;57.40;;;;;;4994947;28;20173;-70
2022/12/10 13:08:18;;;;;;;3.97;2.80;;;17.70;57.50;;;;;;5010000;28;20189;-67
2022/12/10 13:11:16;;;;;;;3.10;2.70;;;17.70;57.50;;;;;;4993679;28;20283;-68
2022/12/10 13:14:30;;;;;;;3.97;2.70;;;17.70;57.40;;;;;;4993661;28;20242;-68
2022/12/10 13:17:35;;;;;;;3.83;2.58;;;17.70;57.40;;;;;;4988930;28;20201;-68
2022/12/10 13:20:26;;;;;;;3.17;2.50;;;17.70;57.40;;;;;;4994459;28;20207;-68
2022/12/10 13:23:02;;;;;;;2.80;2.60;;;17.70;57.40;;;;;;4996160;28;20184;-68
2022/12/10 13:25:55;;;;;;;2.72;2.53;;;17.70;57.40;;;;;;4996879;28;20552;-68
2022/12/10 13:28:27;;;;;;;3.95;2.47;;;17.70;57.50;;;;;;5012071;28;20187;-68
2022/12/10 13:31:33;;;;;;;3.35;2.80;;;17.70;57.50;;;;;;5012883;28;20190;-67